»·PEaware :: SKY113 KOAR-KPAO

SKY113 :: KOAR-KPAO

FLIGHT INFORMATION

Flight Status: Arrived
Operator:
Sky High Charters
More flights by this operator :: More flights under this callsign
Pilot: Michal O. (28532)
Aircraft: Diamond DA-62
(DA62)
More flights by this aircraft type
Origin: KOAR Marina
United States
Destination: KPAO Palo Alto Of Santa Clara Co
United States
More flights between these airports :: More routes between these airports
Route: SNS V25 SAPID
File this flight plan on PilotEdge
Remarks:
Altitude:
(Current/Filed)
6,000ft
Speed:
(Current/Filed)
180kts
Departed: 18-Jul-21 07:08 PM
Arrived: 18-Jul-21 07:39 PM
Distance/Time
Traveled:
49nm/0:31
Distance/Time
To Go:
Arrived

Flight Plot

Page will automatically refresh every two minutes.

Flight plan parsing failed; only flown route is shown


Map Options




Map Legend


Flown Route
Filed Route
Departure Airport
Arrival Airport
Navaid (VOR, NDB)
Fix

Horizontal Profiles

Position Reports

Time Latitude Longitude Heading Altitude Ground
Speed
18-Jul-21 18:48 36.681891 -121.766440 128 145ft 0kts
18-Jul-21 18:49 36.681891 -121.766440 128 145ft 0kts
18-Jul-21 18:50 36.681891 -121.766440 128 145ft 0kts
18-Jul-21 18:51 36.681891 -121.766440 128 145ft 0kts
18-Jul-21 18:52 36.681891 -121.766440 128 145ft 0kts
18-Jul-21 18:53 36.681891 -121.766440 128 145ft 0kts
18-Jul-21 18:54 36.681891 -121.766440 128 145ft 0kts
18-Jul-21 18:55 36.681891 -121.766440 128 145ft 0kts
18-Jul-21 18:56 36.681891 -121.766440 128 145ft 0kts
18-Jul-21 18:57 36.681891 -121.766440 128 145ft 0kts
18-Jul-21 18:58 36.681891 -121.766440 128 145ft 0kts
18-Jul-21 18:59 36.681891 -121.766440 128 145ft 0kts
18-Jul-21 19:00 36.681891 -121.766440 128 145ft 0kts
18-Jul-21 19:01 36.681891 -121.766440 128 145ft 0kts
18-Jul-21 19:02 36.681891 -121.766440 128 145ft 0kts
18-Jul-21 19:03 36.681891 -121.766440 128 145ft 0kts
18-Jul-21 19:04 36.681014 -121.763839 124 141ft 24kts
18-Jul-21 19:05 36.679682 -121.758149 330 129ft 6kts
18-Jul-21 19:06 36.679822 -121.758396 301 129ft 0kts
18-Jul-21 19:07 36.689943 -121.778634 301 1099ft 79kts
18-Jul-21 19:08 36.707228 -121.783404 59 2469ft 101kts
18-Jul-21 19:09 36.701871 -121.749041 109 3812ft 104kts
18-Jul-21 19:10 36.693114 -121.715320 111 5106ft 102kts
18-Jul-21 19:11 36.683959 -121.680125 111 6014ft 132kts
18-Jul-21 19:12 36.691071 -121.634738 9 6005ft 177kts
18-Jul-21 19:13 36.718964 -121.675241 296 5998ft 177kts
18-Jul-21 19:14 36.747609 -121.725799 304 6000ft 179kts
18-Jul-21 19:15 36.778772 -121.774319 307 5999ft 179kts
18-Jul-21 19:16 36.811153 -121.822077 307 6001ft 179kts
18-Jul-21 19:17 36.843268 -121.869873 306 6000ft 179kts
18-Jul-21 19:18 36.875268 -121.917616 306 6000ft 180kts
18-Jul-21 19:19 36.907362 -121.965596 306 6000ft 180kts
18-Jul-21 19:20 36.939416 -122.013587 306 6001ft 179kts
18-Jul-21 19:21 36.971474 -122.061603 306 6001ft 179kts
18-Jul-21 19:22 37.015499 -122.091415 335 6001ft 183kts
18-Jul-21 19:23 37.062904 -122.115206 335 6001ft 183kts
18-Jul-21 19:24 37.110317 -122.139049 335 5999ft 183kts
18-Jul-21 19:25 37.157217 -122.162736 335 6043ft 183kts
18-Jul-21 19:26 37.197241 -122.156406 57 5937ft 171kts
18-Jul-21 19:27 37.215405 -122.107321 69 5443ft 156kts
18-Jul-21 19:28 37.229640 -122.064333 69 4869ft 152kts
18-Jul-21 19:29 37.245221 -122.030683 21 4527ft 148kts
18-Jul-21 19:30 37.271088 -122.030853 343 4248ft 150kts
18-Jul-21 19:31 37.306229 -122.042467 340 3524ft 148kts
18-Jul-21 19:32 37.337067 -122.052838 338 3153ft 106kts
18-Jul-21 19:33 37.361369 -122.061198 337 2703ft 96kts
18-Jul-21 19:34 37.388361 -122.071765 331 2012ft 87kts
18-Jul-21 19:35 37.414339 -122.085722 334 1288ft 86kts
18-Jul-21 19:36 37.436026 -122.097419 335 681ft 76kts
18-Jul-21 19:37 37.454272 -122.108397 326 138ft 73kts
18-Jul-21 19:38 37.463183 -122.117942 129 8ft 8kts
18-Jul-21 19:39 37.461236 -122.115786 141 7ft 23kts
18-Jul-21 19:40 37.457452 -122.112671 151 9ft 10kts
18-Jul-21 19:41 37.456918 -122.112365 179 10ft 0kts
18-Jul-21 19:42 37.456918 -122.112365 179 10ft 0kts
18-Jul-21 19:43 37.456918 -122.112365 179 10ft 0kts
18-Jul-21 19:44 37.456918 -122.112365 179 10ft 0kts
18-Jul-21 19:45 37.456918 -122.112365 179 10ft 0kts
18-Jul-21 19:46 37.456918 -122.112365 179 10ft 0kts
18-Jul-21 19:47 37.456918 -122.112365 179 10ft 0kts

Navigation Log

Ident Type
Flight plan parsing failed, navigation log unavailable